Zia Pueblo, New Mexico
Current Conditions -  °F | °C
As of 11:35 PM on Tuesday 25 Nov 2014 (Local Time) from KAEG Reporting Station
Clear Clear  
Wind Chill: -5°   Ceiling: Unl
Heat Index:   Visibility: 10mi
Dew Point: -14°   Wind: 9mph
Humidity: 35%   Direction: 300°WNW
Pressure: 30.31"   Gusts: NA
Location:  35.5626°N, 106.824°W
Report Text: KAEG 260635Z AUTO 30008KT 10SM CLR 00/M14 A3031 RMK AO2 T10041143
Loading
Personal Weather Stations






























Interactive Weather Map New forecast layout! Learn more

10-Day Weather Forecast

Advertisements
Track Severe Weather on mobile